San Bernardino, California
Current Conditions -  °F | °C
As of 8:50 PM on Saturday 20 Dec 2014 (Local Time) from KSBD Reporting Station
Clear Clear  
Wind Chill: 44°   Ceiling: Unl
Heat Index: 46°   Visibility: 7mi
Dew Point: 43°   Wind: 5mph
Humidity: 87%   Direction: 70°ENE
Pressure: 30.16"   Gusts: NA
Location:  34.11°N, 117.29°W
Report Text: KSBD 210450Z 07004KT 7SM SKC 08/06 A3016
Loading
Personal Weather Stations






























Interactive Weather Map New forecast layout! Learn more

10-Day Weather Forecast

Advertisements
Track Severe Weather on mobile